sensor_id;sensor_type;location;lat;lon;timestamp;P1;durP1;ratioP1;P2;durP2;ratioP2
62353;SDS011;48391;49.184;2.418;2022-08-20T06:13:33;12.38;;;5.97;;
62353;SDS011;48391;49.184;2.418;2022-08-20T06:16:00;21.27;;;6.25;;
62353;SDS011;48391;49.184;2.418;2022-08-20T06:18:26;9.35;;;4.07;;
62353;SDS011;48391;49.184;2.418;2022-08-20T06:20:52;14.20;;;4.38;;
62353;SDS011;48391;49.184;2.418;2022-08-20T06:23:18;11.07;;;3.85;;
62353;SDS011;48391;49.184;2.418;2022-08-20T06:25:45;10.80;;;4.75;;
62353;SDS011;48391;49.184;2.418;2022-08-20T06:28:13;15.80;;;4.53;;
62353;SDS011;48391;49.184;2.418;2022-08-20T06:30:39;10.10;;;3.65;;
62353;SDS011;48391;49.184;2.418;2022-08-20T06:33:05;7.78;;;3.47;;
62353;SDS011;48391;49.184;2.418;2022-08-20T06:35:32;14.52;;;3.63;;
62353;SDS011;48391;49.184;2.418;2022-08-20T06:37:58;9.10;;;3.15;;
62353;SDS011;48391;49.184;2.418;2022-08-20T06:40:26;8.57;;;2.95;;
62353;SDS011;48391;49.184;2.418;2022-08-20T06:42:53;7.47;;;2.38;;
62353;SDS011;48391;49.184;2.418;2022-08-20T06:45:20;5.82;;;1.77;;
62353;SDS011;48391;49.184;2.418;2022-08-20T06:50:18;5.22;;;2.10;;
62353;SDS011;48391;49.184;2.418;2022-08-20T06:52:45;14.27;;;3.10;;
62353;SDS011;48391;49.184;2.418;2022-08-20T06:55:13;11.93;;;2.25;;
62353;SDS011;48391;49.184;2.418;2022-08-20T06:57:40;6.72;;;2.00;;
62353;SDS011;48391;49.184;2.418;2022-08-20T07:00:11;5.07;;;1.58;;
62353;SDS011;48391;49.184;2.418;2022-08-20T07:02:38;4.25;;;2.17;;
62353;SDS011;48391;49.184;2.418;2022-08-20T07:05:04;12.10;;;3.67;;
62353;SDS011;48391;49.184;2.418;2022-08-20T07:07:30;11.02;;;2.47;;
62353;SDS011;48391;49.184;2.418;2022-08-20T07:10:04;6.13;;;1.73;;
62353;SDS011;48391;49.184;2.418;2022-08-20T07:12:30;8.70;;;1.95;;
62353;SDS011;48391;49.184;2.418;2022-08-20T07:14:56;5.45;;;2.15;;
62353;SDS011;48391;49.184;2.418;2022-08-20T07:17:22;13.13;;;2.75;;
62353;SDS011;48391;49.184;2.418;2022-08-20T07:19:48;11.82;;;2.60;;
62353;SDS011;48391;49.184;2.418;2022-08-20T07:22:15;8.13;;;2.80;;
62353;SDS011;48391;49.184;2.418;2022-08-20T07:24:41;10.90;;;2.75;;
62353;SDS011;48391;49.184;2.418;2022-08-20T07:27:08;7.45;;;2.63;;
62353;SDS011;48391;49.184;2.418;2022-08-20T07:29:34;11.88;;;3.42;;
62353;SDS011;48391;49.184;2.418;2022-08-20T07:32:19;8.15;;;2.60;;
62353;SDS011;48391;49.184;2.418;2022-08-20T07:34:58;13.95;;;3.08;;
62353;SDS011;48391;49.184;2.418;2022-08-20T07:37:25;7.05;;;2.40;;
62353;SDS011;48391;49.184;2.418;2022-08-20T07:39:51;9.15;;;2.58;;
62353;SDS011;48391;49.184;2.418;2022-08-20T07:42:18;7.47;;;2.80;;
62353;SDS011;48391;49.184;2.418;2022-08-20T07:44:44;7.35;;;2.00;;
62353;SDS011;48391;49.184;2.418;2022-08-20T07:47:11;10.10;;;2.35;;
62353;SDS011;48391;49.184;2.418;2022-08-20T07:49:38;9.15;;;2.88;;
62353;SDS011;48391;49.184;2.418;2022-08-20T07:52:04;7.60;;;2.08;;
62353;SDS011;48391;49.184;2.418;2022-08-20T07:54:31;14.27;;;3.47;;
62353;SDS011;48391;49.184;2.418;2022-08-20T07:57:01;10.15;;;2.92;;
62353;SDS011;48391;49.184;2.418;2022-08-20T07:59:28;14.35;;;3.92;;
62353;SDS011;48391;49.184;2.418;2022-08-20T08:01:54;10.52;;;2.92;;
62353;SDS011;48391;49.184;2.418;2022-08-20T08:04:21;12.15;;;2.85;;
62353;SDS011;48391;49.184;2.418;2022-08-20T08:06:49;8.32;;;2.63;;
62353;SDS011;48391;49.184;2.418;2022-08-20T08:09:15;8.98;;;2.28;;
62353;SDS011;48391;49.184;2.418;2022-08-20T08:11:42;17.50;;;4.82;;
62353;SDS011;48391;49.184;2.418;2022-08-20T08:14:10;10.23;;;2.10;;
62353;SDS011;48391;49.184;2.418;2022-08-20T08:16:37;10.43;;;2.22;;
62353;SDS011;48391;49.184;2.418;2022-08-20T08:19:05;10.73;;;3.03;;
62353;SDS011;48391;49.184;2.418;2022-08-20T08:21:33;9.18;;;2.85;;
62353;SDS011;48391;49.184;2.418;2022-08-20T08:24:00;8.93;;;3.05;;
62353;SDS011;48391;49.184;2.418;2022-08-20T08:26:26;11.52;;;4.07;;
62353;SDS011;48391;49.184;2.418;2022-08-20T08:28:53;10.70;;;3.05;;
62353;SDS011;48391;49.184;2.418;2022-08-20T08:31:19;11.43;;;3.60;;
62353;SDS011;48391;49.184;2.418;2022-08-20T08:33:45;12.80;;;3.67;;
62353;SDS011;48391;49.184;2.418;2022-08-20T08:36:12;10.95;;;3.55;;
62353;SDS011;48391;49.184;2.418;2022-08-20T08:38:41;14.05;;;3.45;;
62353;SDS011;48391;49.184;2.418;2022-08-20T08:41:18;15.02;;;3.28;;
62353;SDS011;48391;49.184;2.418;2022-08-20T08:43:45;13.80;;;3.33;;
62353;SDS011;48391;49.184;2.418;2022-08-20T08:46:14;16.73;;;3.15;;
62353;SDS011;48391;49.184;2.418;2022-08-20T08:48:43;6.10;;;2.42;;
62353;SDS011;48391;49.184;2.418;2022-08-20T08:51:12;11.30;;;2.63;;
62353;SDS011;48391;49.184;2.418;2022-08-20T08:53:45;12.18;;;3.03;;
62353;SDS011;48391;49.184;2.418;2022-08-20T08:56:13;13.50;;;3.17;;
62353;SDS011;48391;49.184;2.418;2022-08-20T08:58:40;8.13;;;2.45;;
62353;SDS011;48391;49.184;2.418;2022-08-20T09:01:09;12.07;;;3.15;;
62353;SDS011;48391;49.184;2.418;2022-08-20T09:03:37;13.45;;;4.20;;
62353;SDS011;48391;49.184;2.418;2022-08-20T09:06:04;13.77;;;2.83;;
62353;SDS011;48391;49.184;2.418;2022-08-20T09:08:35;15.93;;;3.67;;
62353;SDS011;48391;49.184;2.418;2022-08-20T09:11:06;14.45;;;3.08;;
62353;SDS011;48391;49.184;2.418;2022-08-20T09:13:33;8.18;;;2.25;;
62353;SDS011;48391;49.184;2.418;2022-08-20T09:15:59;10.90;;;2.78;;
62353;SDS011;48391;49.184;2.418;2022-08-20T09:18:25;10.40;;;2.63;;
62353;SDS011;48391;49.184;2.418;2022-08-20T09:20:51;10.00;;;2.42;;
62353;SDS011;48391;49.184;2.418;2022-08-20T09:23:18;8.55;;;2.70;;
62353;SDS011;48391;49.184;2.418;2022-08-20T09:25:44;7.85;;;1.70;;
62353;SDS011;48391;49.184;2.418;2022-08-20T09:28:10;9.48;;;2.72;;
62353;SDS011;48391;49.184;2.418;2022-08-20T09:30:36;15.23;;;2.78;;
62353;SDS011;48391;49.184;2.418;2022-08-20T09:33:02;14.63;;;4.90;;
62353;SDS011;48391;49.184;2.418;2022-08-20T09:35:28;9.38;;;2.75;;
62353;SDS011;48391;49.184;2.418;2022-08-20T09:37:55;10.18;;;2.72;;
62353;SDS011;48391;49.184;2.418;2022-08-20T09:40:21;8.25;;;2.50;;
62353;SDS011;48391;49.184;2.418;2022-08-20T09:42:47;10.15;;;2.03;;
62353;SDS011;48391;49.184;2.418;2022-08-20T09:45:14;11.43;;;3.53;;
62353;SDS011;48391;49.184;2.418;2022-08-20T09:47:40;9.70;;;2.55;;
62353;SDS011;48391;49.184;2.418;2022-08-20T09:50:07;8.75;;;2.15;;
62353;SDS011;48391;49.184;2.418;2022-08-20T09:52:35;11.95;;;2.15;;
62353;SDS011;48391;49.184;2.418;2022-08-20T09:55:21;15.25;;;3.15;;
62353;SDS011;48391;49.184;2.418;2022-08-20T09:57:49;11.55;;;2.78;;
62353;SDS011;48391;49.184;2.418;2022-08-20T10:00:16;11.43;;;2.92;;
62353;SDS011;48391;49.184;2.418;2022-08-20T10:02:43;9.93;;;2.60;;
62353;SDS011;48391;49.184;2.418;2022-08-20T10:05:09;6.28;;;2.45;;
62353;SDS011;48391;49.184;2.418;2022-08-20T10:07:36;5.90;;;1.67;;
62353;SDS011;48391;49.184;2.418;2022-08-20T10:10:04;10.18;;;2.08;;
62353;SDS011;48391;49.184;2.418;2022-08-20T10:12:30;4.53;;;1.75;;
62353;SDS011;48391;49.184;2.418;2022-08-20T10:14:56;7.90;;;2.10;;
62353;SDS011;48391;49.184;2.418;2022-08-20T10:17:22;5.30;;;2.03;;
62353;SDS011;48391;49.184;2.418;2022-08-20T10:19:49;7.40;;;1.58;;
62353;SDS011;48391;49.184;2.418;2022-08-20T10:22:15;5.35;;;1.90;;
62353;SDS011;48391;49.184;2.418;2022-08-20T10:24:41;9.48;;;2.45;;
62353;SDS011;48391;49.184;2.418;2022-08-20T10:27:07;8.00;;;2.90;;
62353;SDS011;48391;49.184;2.418;2022-08-20T10:29:33;10.20;;;2.28;;
62353;SDS011;48391;49.184;2.418;2022-08-20T10:32:10;11.65;;;2.83;;
62353;SDS011;48391;49.184;2.418;2022-08-20T10:34:39;5.93;;;1.55;;
62353;SDS011;48391;49.184;2.418;2022-08-20T10:37:06;6.47;;;1.42;;
62353;SDS011;48391;49.184;2.418;2022-08-20T10:39:39;5.40;;;1.60;;
62353;SDS011;48391;49.184;2.418;2022-08-20T10:42:06;7.70;;;1.90;;
62353;SDS011;48391;49.184;2.418;2022-08-20T10:44:33;8.02;;;3.03;;
62353;SDS011;48391;49.184;2.418;2022-08-20T10:47:11;6.75;;;1.75;;
62353;SDS011;48391;49.184;2.418;2022-08-20T10:49:37;4.15;;;1.55;;
62353;SDS011;48391;49.184;2.418;2022-08-20T10:52:04;6.70;;;1.80;;
62353;SDS011;48391;49.184;2.418;2022-08-20T10:54:30;5.90;;;1.30;;
62353;SDS011;48391;49.184;2.418;2022-08-20T10:57:00;7.97;;;2.00;;
62353;SDS011;48391;49.184;2.418;2022-08-20T11:01:52;5.63;;;2.00;;
62353;SDS011;48391;49.184;2.418;2022-08-20T11:04:18;5.25;;;1.95;;
62353;SDS011;48391;49.184;2.418;2022-08-20T11:06:44;8.60;;;2.85;;
62353;SDS011;48391;49.184;2.418;2022-08-20T11:09:10;6.43;;;2.25;;
62353;SDS011;48391;49.184;2.418;2022-08-20T11:11:36;6.07;;;2.05;;
62353;SDS011;48391;49.184;2.418;2022-08-20T11:14:02;4.60;;;1.58;;
62353;SDS011;48391;49.184;2.418;2022-08-20T11:16:28;8.82;;;2.63;;
62353;SDS011;48391;49.184;2.418;2022-08-20T11:18:54;5.68;;;2.25;;
62353;SDS011;48391;49.184;2.418;2022-08-20T11:21:20;8.88;;;3.20;;
62353;SDS011;48391;49.184;2.418;2022-08-20T11:23:46;6.57;;;2.00;;
62353;SDS011;48391;49.184;2.418;2022-08-20T11:26:14;9.32;;;2.38;;
62353;SDS011;48391;49.184;2.418;2022-08-20T11:28:43;7.28;;;2.67;;
62353;SDS011;48391;49.184;2.418;2022-08-20T11:31:09;6.07;;;2.22;;
62353;SDS011;48391;49.184;2.418;2022-08-20T11:33:35;9.30;;;2.45;;
62353;SDS011;48391;49.184;2.418;2022-08-20T11:36:01;5.53;;;2.65;;
62353;SDS011;48391;49.184;2.418;2022-08-20T11:38:27;7.07;;;1.98;;
62353;SDS011;48391;49.184;2.418;2022-08-20T11:40:53;6.47;;;1.77;;
62353;SDS011;48391;49.184;2.418;2022-08-20T11:43:19;4.88;;;1.92;;
62353;SDS011;48391;49.184;2.418;2022-08-20T11:45:46;7.45;;;2.53;;
62353;SDS011;48391;49.184;2.418;2022-08-20T11:48:13;8.63;;;5.70;;
62353;SDS011;48391;49.184;2.418;2022-08-20T11:50:39;7.65;;;2.22;;
62353;SDS011;48391;49.184;2.418;2022-08-20T11:53:05;9.00;;;1.70;;
62353;SDS011;48391;49.184;2.418;2022-08-20T11:55:31;6.15;;;1.92;;
62353;SDS011;48391;49.184;2.418;2022-08-20T11:57:57;5.97;;;1.73;;
62353;SDS011;48391;49.184;2.418;2022-08-20T12:00:23;4.43;;;1.50;;
62353;SDS011;48391;49.184;2.418;2022-08-20T12:02:49;5.28;;;2.15;;
62353;SDS011;48391;49.184;2.418;2022-08-20T12:05:16;3.92;;;2.10;;
62353;SDS011;48391;49.184;2.418;2022-08-20T12:07:42;8.30;;;2.45;;
62353;SDS011;48391;49.184;2.418;2022-08-20T12:12:39;7.45;;;2.70;;
62353;SDS011;48391;49.184;2.418;2022-08-20T12:15:06;5.13;;;2.08;;
62353;SDS011;48391;49.184;2.418;2022-08-20T12:17:33;5.97;;;1.45;;
62353;SDS011;48391;49.184;2.418;2022-08-20T12:19:59;5.25;;;1.70;;
62353;SDS011;48391;49.184;2.418;2022-08-20T12:22:26;1.95;;;1.38;;
62353;SDS011;48391;49.184;2.418;2022-08-20T12:24:52;4.40;;;2.17;;
62353;SDS011;48391;49.184;2.418;2022-08-20T12:27:20;7.00;;;2.45;;
62353;SDS011;48391;49.184;2.418;2022-08-20T12:29:47;9.48;;;2.05;;
62353;SDS011;48391;49.184;2.418;2022-08-20T12:32:16;3.95;;;2.03;;
62353;SDS011;48391;49.184;2.418;2022-08-20T12:34:42;5.85;;;2.17;;
62353;SDS011;48391;49.184;2.418;2022-08-20T12:37:27;4.43;;;1.73;;
62353;SDS011;48391;49.184;2.418;2022-08-20T12:39:54;15.88;;;2.45;;
62353;SDS011;48391;49.184;2.418;2022-08-20T12:42:21;5.47;;;1.60;;
62353;SDS011;48391;49.184;2.418;2022-08-20T12:44:47;7.70;;;2.53;;
62353;SDS011;48391;49.184;2.418;2022-08-20T12:47:18;3.60;;;1.77;;
62353;SDS011;48391;49.184;2.418;2022-08-20T12:49:46;3.38;;;1.35;;
62353;SDS011;48391;49.184;2.418;2022-08-20T12:52:13;7.00;;;1.77;;
62353;SDS011;48391;49.184;2.418;2022-08-20T12:54:39;5.55;;;1.80;;
62353;SDS011;48391;49.184;2.418;2022-08-20T12:57:06;5.03;;;2.22;;
62353;SDS011;48391;49.184;2.418;2022-08-20T12:59:32;6.32;;;2.15;;
62353;SDS011;48391;49.184;2.418;2022-08-20T13:01:58;3.67;;;2.00;;
62353;SDS011;48391;49.184;2.418;2022-08-20T13:04:24;5.65;;;1.80;;
62353;SDS011;48391;49.184;2.418;2022-08-20T13:06:50;2.38;;;1.58;;
62353;SDS011;48391;49.184;2.418;2022-08-20T13:09:16;5.72;;;2.45;;
62353;SDS011;48391;49.184;2.418;2022-08-20T13:11:42;8.05;;;2.63;;
62353;SDS011;48391;49.184;2.418;2022-08-20T13:14:08;3.30;;;1.45;;
62353;SDS011;48391;49.184;2.418;2022-08-20T13:16:35;4.70;;;2.17;;
62353;SDS011;48391;49.184;2.418;2022-08-20T13:19:01;4.13;;;1.90;;
62353;SDS011;48391;49.184;2.418;2022-08-20T13:21:27;3.13;;;1.40;;
62353;SDS011;48391;49.184;2.418;2022-08-20T13:23:53;5.10;;;1.80;;
62353;SDS011;48391;49.184;2.418;2022-08-20T13:26:19;7.03;;;2.30;;
62353;SDS011;48391;49.184;2.418;2022-08-20T13:28:45;4.93;;;1.58;;
62353;SDS011;48391;49.184;2.418;2022-08-20T13:31:11;5.70;;;1.70;;
62353;SDS011;48391;49.184;2.418;2022-08-20T13:33:37;2.28;;;1.63;;
62353;SDS011;48391;49.184;2.418;2022-08-20T13:36:03;5.40;;;1.90;;
62353;SDS011;48391;49.184;2.418;2022-08-20T13:38:30;5.35;;;2.03;;
62353;SDS011;48391;49.184;2.418;2022-08-20T13:40:56;5.07;;;2.13;;
62353;SDS011;48391;49.184;2.418;2022-08-20T13:43:22;5.28;;;2.17;;
62353;SDS011;48391;49.184;2.418;2022-08-20T13:45:48;9.18;;;2.05;;
62353;SDS011;48391;49.184;2.418;2022-08-20T13:48:14;4.88;;;2.05;;
62353;SDS011;48391;49.184;2.418;2022-08-20T13:50:40;4.30;;;1.80;;
62353;SDS011;48391;49.184;2.418;2022-08-20T13:53:06;6.88;;;3.08;;
62353;SDS011;48391;49.184;2.418;2022-08-20T13:55:32;5.28;;;2.55;;
62353;SDS011;48391;49.184;2.418;2022-08-20T13:58:02;4.57;;;1.70;;
62353;SDS011;48391;49.184;2.418;2022-08-20T14:00:30;6.85;;;1.67;;
62353;SDS011;48391;49.184;2.418;2022-08-20T14:02:56;5.07;;;1.98;;
62353;SDS011;48391;49.184;2.418;2022-08-20T14:05:22;2.85;;;1.13;;
62353;SDS011;48391;49.184;2.418;2022-08-20T14:07:48;6.22;;;1.98;;
62353;SDS011;48391;49.184;2.418;2022-08-20T14:10:16;6.53;;;1.50;;
62353;SDS011;48391;49.184;2.418;2022-08-20T14:12:42;6.47;;;2.17;;
62353;SDS011;48391;49.184;2.418;2022-08-20T14:15:09;5.55;;;1.77;;
62353;SDS011;48391;49.184;2.418;2022-08-20T14:17:37;3.38;;;1.23;;
62353;SDS011;48391;49.184;2.418;2022-08-20T14:20:05;6.80;;;2.58;;
62353;SDS011;48391;49.184;2.418;2022-08-20T14:22:32;2.97;;;1.35;;
62353;SDS011;48391;49.184;2.418;2022-08-20T14:24:58;3.75;;;1.55;;
62353;SDS011;48391;49.184;2.418;2022-08-20T14:27:27;2.63;;;1.25;;
62353;SDS011;48391;49.184;2.418;2022-08-20T14:29:54;5.20;;;2.38;;
62353;SDS011;48391;49.184;2.418;2022-08-20T14:32:20;3.85;;;1.75;;
62353;SDS011;48391;49.184;2.418;2022-08-20T14:34:46;4.53;;;1.17;;
62353;SDS011;48391;49.184;2.418;2022-08-20T14:37:17;7.25;;;1.48;;
62353;SDS011;48391;49.184;2.418;2022-08-20T14:39:43;2.17;;;0.98;;
62353;SDS011;48391;49.184;2.418;2022-08-20T14:42:10;4.60;;;1.65;;
62353;SDS011;48391;49.184;2.418;2022-08-20T14:44:36;3.92;;;1.27;;
62353;SDS011;48391;49.184;2.418;2022-08-20T14:47:10;5.55;;;1.77;;
62353;SDS011;48391;49.184;2.418;2022-08-20T14:49:36;4.47;;;1.90;;
62353;SDS011;48391;49.184;2.418;2022-08-20T14:52:02;3.97;;;1.30;;
62353;SDS011;48391;49.184;2.418;2022-08-20T14:54:28;6.82;;;1.83;;
62353;SDS011;48391;49.184;2.418;2022-08-20T14:56:56;2.97;;;1.30;;
62353;SDS011;48391;49.184;2.418;2022-08-20T14:59:22;4.85;;;1.63;;
62353;SDS011;48391;49.184;2.418;2022-08-20T15:01:48;5.00;;;1.05;;
62353;SDS011;48391;49.184;2.418;2022-08-20T15:04:14;4.45;;;1.75;;
62353;SDS011;48391;49.184;2.418;2022-08-20T15:06:43;4.13;;;1.35;;
62353;SDS011;48391;49.184;2.418;2022-08-20T15:09:09;5.57;;;1.55;;
62353;SDS011;48391;49.184;2.418;2022-08-20T15:11:35;5.93;;;1.75;;
62353;SDS011;48391;49.184;2.418;2022-08-20T15:14:03;3.38;;;0.95;;
62353;SDS011;48391;49.184;2.418;2022-08-20T15:16:29;5.43;;;1.35;;
62353;SDS011;48391;49.184;2.418;2022-08-20T15:18:55;5.47;;;2.15;;
62353;SDS011;48391;49.184;2.418;2022-08-20T15:21:21;4.72;;;1.98;;
62353;SDS011;48391;49.184;2.418;2022-08-20T15:23:48;6.38;;;1.35;;
62353;SDS011;48391;49.184;2.418;2022-08-20T15:26:14;5.28;;;1.27;;
62353;SDS011;48391;49.184;2.418;2022-08-20T15:28:40;3.25;;;1.13;;
62353;SDS011;48391;49.184;2.418;2022-08-20T15:31:09;2.33;;;1.13;;
62353;SDS011;48391;49.184;2.418;2022-08-20T15:33:36;7.80;;;1.73;;
62353;SDS011;48391;49.184;2.418;2022-08-20T15:36:03;5.30;;;1.65;;
62353;SDS011;48391;49.184;2.418;2022-08-20T15:38:30;4.32;;;1.33;;
62353;SDS011;48391;49.184;2.418;2022-08-20T15:40:57;3.70;;;1.40;;
62353;SDS011;48391;49.184;2.418;2022-08-20T15:43:25;2.55;;;1.00;;
62353;SDS011;48391;49.184;2.418;2022-08-20T15:45:51;3.13;;;1.23;;
62353;SDS011;48391;49.184;2.418;2022-08-20T15:48:17;3.55;;;0.70;;
62353;SDS011;48391;49.184;2.418;2022-08-20T15:53:32;3.60;;;0.82;;
62353;SDS011;48391;49.184;2.418;2022-08-20T15:56:07;6.30;;;1.63;;
62353;SDS011;48391;49.184;2.418;2022-08-20T15:58:38;3.88;;;1.40;;
62353;SDS011;48391;49.184;2.418;2022-08-20T16:01:10;3.42;;;0.68;;
62353;SDS011;48391;49.184;2.418;2022-08-20T16:06:24;2.08;;;0.65;;
62353;SDS011;48391;49.184;2.418;2022-08-20T16:14:13;8.63;;;1.77;;
62353;SDS011;48391;49.184;2.418;2022-08-20T16:16:45;2.92;;;1.30;;
62353;SDS011;48391;49.184;2.418;2022-08-20T16:19:14;4.38;;;1.90;;
62353;SDS011;48391;49.184;2.418;2022-08-20T16:21:42;10.00;;;1.70;;
62353;SDS011;48391;49.184;2.418;2022-08-20T16:24:09;4.05;;;1.42;;
62353;SDS011;48391;49.184;2.418;2022-08-20T16:26:45;3.15;;;1.27;;
62353;SDS011;48391;49.184;2.418;2022-08-20T16:29:38;4.97;;;1.17;;
62353;SDS011;48391;49.184;2.418;2022-08-20T16:37:40;6.35;;;1.60;;
62353;SDS011;48391;49.184;2.418;2022-08-20T16:42:36;4.78;;;1.05;;
62353;SDS011;48391;49.184;2.418;2022-08-20T16:45:04;6.35;;;1.38;;
62353;SDS011;48391;49.184;2.418;2022-08-20T16:47:34;8.00;;;1.73;;
62353;SDS011;48391;49.184;2.418;2022-08-20T16:50:05;6.60;;;1.23;;
62353;SDS011;48391;49.184;2.418;2022-08-20T16:52:31;5.10;;;1.25;;
62353;SDS011;48391;49.184;2.418;2022-08-20T16:54:57;3.55;;;1.23;;
62353;SDS011;48391;49.184;2.418;2022-08-20T16:57:27;8.45;;;1.80;;
62353;SDS011;48391;49.184;2.418;2022-08-20T17:02:25;3.88;;;1.25;;
62353;SDS011;48391;49.184;2.418;2022-08-20T17:04:52;3.63;;;1.02;;
62353;SDS011;48391;49.184;2.418;2022-08-20T17:07:39;2.88;;;1.35;;
62353;SDS011;48391;49.184;2.418;2022-08-20T17:10:11;5.65;;;2.25;;
62353;SDS011;48391;49.184;2.418;2022-08-20T17:12:37;5.95;;;2.15;;
62353;SDS011;48391;49.184;2.418;2022-08-20T17:15:04;6.88;;;1.25;;
62353;SDS011;48391;49.184;2.418;2022-08-20T17:17:32;1.75;;;1.10;;
62353;SDS011;48391;49.184;2.418;2022-08-20T17:20:04;5.90;;;1.40;;
62353;SDS011;48391;49.184;2.418;2022-08-20T17:22:44;5.25;;;1.35;;
62353;SDS011;48391;49.184;2.418;2022-08-20T17:25:11;6.60;;;1.40;;
62353;SDS011;48391;49.184;2.418;2022-08-20T17:27:38;4.32;;;1.52;;
62353;SDS011;48391;49.184;2.418;2022-08-20T17:32:45;5.90;;;1.60;;
62353;SDS011;48391;49.184;2.418;2022-08-20T17:35:18;4.32;;;1.42;;
62353;SDS011;48391;49.184;2.418;2022-08-20T17:37:48;2.90;;;1.10;;
62353;SDS011;48391;49.184;2.418;2022-08-20T17:40:19;5.82;;;1.30;;
62353;SDS011;48391;49.184;2.418;2022-08-20T17:45:19;4.15;;;0.88;;
62353;SDS011;48391;49.184;2.418;2022-08-20T17:47:46;3.83;;;1.40;;
62353;SDS011;48391;49.184;2.418;2022-08-20T17:50:14;9.18;;;1.77;;
62353;SDS011;48391;49.184;2.418;2022-08-20T17:52:43;2.58;;;1.33;;
62353;SDS011;48391;49.184;2.418;2022-08-20T17:55:10;2.47;;;0.70;;
62353;SDS011;48391;49.184;2.418;2022-08-20T17:57:37;7.35;;;1.98;;
62353;SDS011;48391;49.184;2.418;2022-08-20T18:00:09;6.65;;;1.60;;
62353;SDS011;48391;49.184;2.418;2022-08-20T18:02:39;3.67;;;1.17;;
62353;SDS011;48391;49.184;2.418;2022-08-20T18:05:06;4.90;;;1.45;;
62353;SDS011;48391;49.184;2.418;2022-08-20T18:07:38;4.68;;;1.77;;
62353;SDS011;48391;49.184;2.418;2022-08-20T18:10:10;6.15;;;1.40;;
62353;SDS011;48391;49.184;2.418;2022-08-20T18:15:18;3.13;;;1.45;;
62353;SDS011;48391;49.184;2.418;2022-08-20T18:21:19;8.15;;;1.75;;
62353;SDS011;48391;49.184;2.418;2022-08-20T18:23:16;4.63;;;1.60;;
62353;SDS011;48391;49.184;2.418;2022-08-20T18:25:47;7.18;;;1.40;;
62353;SDS011;48391;49.184;2.418;2022-08-20T18:28:15;5.60;;;2.13;;
62353;SDS011;48391;49.184;2.418;2022-08-20T18:30:50;3.53;;;1.30;;
62353;SDS011;48391;49.184;2.418;2022-08-20T18:36:05;7.68;;;1.90;;
62353;SDS011;48391;49.184;2.418;2022-08-20T18:38:32;6.20;;;2.13;;
62353;SDS011;48391;49.184;2.418;2022-08-20T18:41:33;2.70;;;1.30;;
62353;SDS011;48391;49.184;2.418;2022-08-20T18:44:00;6.88;;;1.65;;
62353;SDS011;48391;49.184;2.418;2022-08-20T18:46:26;11.02;;;4.07;;
62353;SDS011;48391;49.184;2.418;2022-08-20T18:48:54;12.77;;;6.68;;
62353;SDS011;48391;49.184;2.418;2022-08-20T18:51:22;26.30;;;14.15;;
62353;SDS011;48391;49.184;2.418;2022-08-20T18:53:50;31.40;;;20.67;;
62353;SDS011;48391;49.184;2.418;2022-08-20T18:56:16;45.15;;;27.10;;
62353;SDS011;48391;49.184;2.418;2022-08-20T19:01:47;39.17;;;22.17;;
62353;SDS011;48391;49.184;2.418;2022-08-20T19:04:15;28.67;;;18.10;;
62353;SDS011;48391;49.184;2.418;2022-08-20T19:09:10;21.55;;;13.35;;
62353;SDS011;48391;49.184;2.418;2022-08-20T19:14:13;26.15;;;16.58;;
62353;SDS011;48391;49.184;2.418;2022-08-20T19:16:46;33.40;;;18.03;;
62353;SDS011;48391;49.184;2.418;2022-08-20T19:19:23;31.67;;;21.45;;
62353;SDS011;48391;49.184;2.418;2022-08-20T19:21:49;29.88;;;20.42;;
62353;SDS011;48391;49.184;2.418;2022-08-20T19:24:17;33.80;;;20.23;;
62353;SDS011;48391;49.184;2.418;2022-08-20T19:26:49;27.98;;;16.25;;
62353;SDS011;48391;49.184;2.418;2022-08-20T19:29:19;17.50;;;11.10;;
62353;SDS011;48391;49.184;2.418;2022-08-20T19:31:47;18.40;;;10.20;;
62353;SDS011;48391;49.184;2.418;2022-08-20T19:34:18;11.40;;;7.53;;
62353;SDS011;48391;49.184;2.418;2022-08-20T19:36:44;13.55;;;7.32;;
62353;SDS011;48391;49.184;2.418;2022-08-20T19:39:15;8.77;;;4.70;;
62353;SDS011;48391;49.184;2.418;2022-08-20T19:41:44;9.70;;;5.30;;
62353;SDS011;48391;49.184;2.418;2022-08-20T19:44:12;6.78;;;4.35;;
62353;SDS011;48391;49.184;2.418;2022-08-20T19:46:48;6.50;;;3.72;;
62353;SDS011;48391;49.184;2.418;2022-08-20T19:49:28;12.02;;;5.22;;
62353;SDS011;48391;49.184;2.418;2022-08-20T19:54:44;8.77;;;4.93;;
62353;SDS011;48391;49.184;2.418;2022-08-20T19:57:10;8.80;;;4.82;;
62353;SDS011;48391;49.184;2.418;2022-08-20T19:59:36;12.43;;;4.68;;
62353;SDS011;48391;49.184;2.418;2022-08-20T20:02:03;10.30;;;5.38;;
62353;SDS011;48391;49.184;2.418;2022-08-20T20:04:39;10.95;;;5.97;;
62353;SDS011;48391;49.184;2.418;2022-08-20T20:07:06;8.45;;;6.05;;
62353;SDS011;48391;49.184;2.418;2022-08-20T20:09:33;9.57;;;5.97;;
62353;SDS011;48391;49.184;2.418;2022-08-20T20:12:00;10.60;;;4.38;;
62353;SDS011;48391;49.184;2.418;2022-08-20T20:14:32;11.02;;;6.43;;
62353;SDS011;48391;49.184;2.418;2022-08-20T20:16:59;9.57;;;5.47;;
62353;SDS011;48391;49.184;2.418;2022-08-20T20:19:25;12.63;;;5.82;;
62353;SDS011;48391;49.184;2.418;2022-08-20T20:22:00;8.18;;;3.95;;
62353;SDS011;48391;49.184;2.418;2022-08-20T20:24:31;8.75;;;4.70;;
62353;SDS011;48391;49.184;2.418;2022-08-20T20:27:04;6.25;;;3.90;;
62353;SDS011;48391;49.184;2.418;2022-08-20T20:29:34;7.20;;;3.50;;
62353;SDS011;48391;49.184;2.418;2022-08-20T20:32:10;8.48;;;3.50;;
62353;SDS011;48391;49.184;2.418;2022-08-20T20:34:37;10.20;;;3.33;;
62353;SDS011;48391;49.184;2.418;2022-08-20T20:39:31;10.77;;;3.33;;
62353;SDS011;48391;49.184;2.418;2022-08-20T20:41:58;7.18;;;3.28;;
62353;SDS011;48391;49.184;2.418;2022-08-20T20:46:51;6.05;;;3.38;;
62353;SDS011;48391;49.184;2.418;2022-08-20T20:49:23;5.22;;;2.88;;
62353;SDS011;48391;49.184;2.418;2022-08-20T20:54:21;5.32;;;3.28;;
62353;SDS011;48391;49.184;2.418;2022-08-20T20:56:56;10.70;;;3.75;;
62353;SDS011;48391;49.184;2.418;2022-08-20T20:59:22;7.40;;;3.80;;
62353;SDS011;48391;49.184;2.418;2022-08-20T21:01:48;4.78;;;3.35;;
62353;SDS011;48391;49.184;2.418;2022-08-20T21:04:14;7.68;;;3.13;;
62353;SDS011;48391;49.184;2.418;2022-08-20T21:06:40;12.50;;;3.95;;
62353;SDS011;48391;49.184;2.418;2022-08-20T21:09:06;11.25;;;3.85;;
62353;SDS011;48391;49.184;2.418;2022-08-20T21:11:32;6.15;;;2.92;;
62353;SDS011;48391;49.184;2.418;2022-08-20T21:13:58;6.40;;;3.53;;
62353;SDS011;48391;49.184;2.418;2022-08-20T21:16:24;11.20;;;4.65;;
62353;SDS011;48391;49.184;2.418;2022-08-20T21:18:50;8.90;;;3.25;;
62353;SDS011;48391;49.184;2.418;2022-08-20T21:21:16;6.03;;;3.05;;
62353;SDS011;48391;49.184;2.418;2022-08-20T21:23:42;6.82;;;3.50;;
62353;SDS011;48391;49.184;2.418;2022-08-20T21:26:08;5.63;;;3.20;;
62353;SDS011;48391;49.184;2.418;2022-08-20T21:28:34;7.28;;;4.10;;
62353;SDS011;48391;49.184;2.418;2022-08-20T21:31:00;8.25;;;3.65;;
62353;SDS011;48391;49.184;2.418;2022-08-20T21:33:26;7.10;;;2.97;;
62353;SDS011;48391;49.184;2.418;2022-08-20T21:35:52;7.72;;;3.28;;
62353;SDS011;48391;49.184;2.418;2022-08-20T21:38:18;7.32;;;3.13;;
62353;SDS011;48391;49.184;2.418;2022-08-20T21:40:44;5.65;;;3.88;;
62353;SDS011;48391;49.184;2.418;2022-08-20T21:43:10;8.82;;;3.55;;
62353;SDS011;48391;49.184;2.418;2022-08-20T21:45:36;8.45;;;3.33;;
62353;SDS011;48391;49.184;2.418;2022-08-20T21:48:02;8.15;;;3.42;;
62353;SDS011;48391;49.184;2.418;2022-08-20T21:50:28;7.35;;;3.88;;
62353;SDS011;48391;49.184;2.418;2022-08-20T21:52:55;9.43;;;3.83;;
62353;SDS011;48391;49.184;2.418;2022-08-20T21:55:21;9.52;;;4.25;;
62353;SDS011;48391;49.184;2.418;2022-08-20T21:57:47;6.07;;;3.38;;
62353;SDS011;48391;49.184;2.418;2022-08-20T22:00:16;5.95;;;3.38;;